Time;durP1;ratioP1;P1;durP2;ratioP2;P2;SDS_P1;SDS_P2;PMS_P1;PMS_P2;Temp;Humidity;BMP_temperature;BMP_pressure;BME280_temperature;BME280_humidity;BME280_pressure;Samples;Min_cycle;Max_cycle;Signal;HPM_P1;HPM_P2
2023/09/01 00:01:49;;;;;;;10.25;4.43;;;12.20;99.90;;;;;;5074300;28;20108;-78
2023/09/01 00:04:15;;;;;;;10.25;5.07;;;12.20;99.90;;;;;;5076804;28;20048;-78
2023/09/01 00:06:40;;;;;;;8.93;4.18;;;12.10;99.90;;;;;;5077156;28;20040;-78
2023/09/01 00:09:06;;;;;;;8.35;4.53;;;12.20;99.90;;;;;;5076655;28;20075;-78
2023/09/01 00:11:31;;;;;;;11.70;4.80;;;12.10;99.90;;;;;;5076761;28;20051;-78
2023/09/01 00:13:57;;;;;;;7.90;4.53;;;12.10;99.90;;;;;;5076685;28;20044;-78
2023/09/01 00:16:23;;;;;;;10.27;5.03;;;12.10;99.90;;;;;;5076642;28;20086;-78
2023/09/01 00:18:48;;;;;;;9.23;4.38;;;12.10;99.90;;;;;;5076729;28;20040;-78
2023/09/01 00:21:14;;;;;;;8.82;4.68;;;12.10;99.90;;;;;;5076994;28;20075;-78
2023/09/01 00:23:40;;;;;;;9.10;4.32;;;12.10;99.90;;;;;;5094619;28;20538;-78
2023/09/01 00:26:06;;;;;;;10.55;4.88;;;12.00;99.90;;;;;;5094727;28;20547;-78
2023/09/01 00:28:31;;;;;;;9.30;4.43;;;12.00;99.90;;;;;;5076595;28;20059;-78
2023/09/01 00:30:58;;;;;;;7.55;4.05;;;12.00;99.90;;;;;;5076187;28;20054;-78
2023/09/01 00:33:28;;;;;;;9.52;4.55;;;12.00;99.90;;;;;;5094204;28;20040;-78
2023/09/01 00:35:55;;;;;;;10.40;4.47;;;11.90;99.90;;;;;;5076502;28;20131;-77
2023/09/01 00:38:21;;;;;;;10.63;5.30;;;11.90;99.90;;;;;;5076386;28;20044;-77
2023/09/01 00:40:48;;;;;;;9.32;4.75;;;12.00;99.90;;;;;;5076136;28;20048;-78
2023/09/01 00:43:15;;;;;;;11.50;5.13;;;11.90;99.90;;;;;;5076118;28;20123;-77
2023/09/01 00:45:41;;;;;;;12.50;4.90;;;12.00;99.90;;;;;;5076162;28;20048;-78
2023/09/01 00:48:08;;;;;;;8.75;5.35;;;12.00;99.90;;;;;;5076147;28;20044;-78
2023/09/01 00:50:36;;;;;;;9.63;4.40;;;12.00;99.90;;;;;;5076345;28;20096;-77
2023/09/01 00:53:02;;;;;;;11.30;4.88;;;12.00;99.90;;;;;;5075866;28;20127;-77
2023/09/01 00:55:29;;;;;;;7.95;4.40;;;12.00;99.90;;;;;;5076023;28;20506;-78
2023/09/01 00:57:55;;;;;;;11.05;4.90;;;12.00;99.90;;;;;;5075554;28;20532;-78
2023/09/01 01:00:21;;;;;;;10.25;4.72;;;12.00;99.90;;;;;;5075691;28;20084;-78
2023/09/01 01:02:48;;;;;;;9.80;4.53;;;12.00;99.90;;;;;;5075968;28;20048;-78
2023/09/01 01:05:15;;;;;;;8.45;4.65;;;12.00;99.90;;;;;;5075831;28;20506;-78
2023/09/01 01:08:19;;;;;;;7.15;4.30;;;11.90;99.90;;;;;;5075615;28;20403;-78
2023/09/01 01:11:01;;;;;;;7.90;4.03;;;12.00;99.90;;;;;;5063963;28;20560;-78
2023/09/01 01:13:34;;;;;;;8.65;4.22;;;11.80;99.90;;;;;;5076190;28;20047;-78
2023/09/01 01:16:02;;;;;;;8.57;4.25;;;11.80;99.90;;;;;;5075744;28;20040;-78
2023/09/01 01:18:32;;;;;;;10.68;4.38;;;11.80;99.90;;;;;;5075785;28;20055;-77
2023/09/01 01:21:11;;;;;;;8.13;4.35;;;11.80;99.90;;;;;;5075967;28;20048;-78
2023/09/01 01:23:37;;;;;;;11.93;3.92;;;11.70;99.90;;;;;;5075935;28;20498;-78
2023/09/01 01:26:05;;;;;;;10.32;4.22;;;11.70;99.90;;;;;;5093789;28;20055;-78
2023/09/01 01:28:30;;;;;;;10.85;4.63;;;11.70;99.90;;;;;;5093588;28;20518;-78
2023/09/01 01:30:56;;;;;;;9.80;4.78;;;11.60;99.90;;;;;;5075771;28;20048;-78
2023/09/01 01:33:41;;;;;;;9.07;4.43;;;11.70;99.90;;;;;;5075792;28;20390;-78
2023/09/01 01:36:19;;;;;;;6.97;3.97;;;11.60;99.90;;;;;;5075708;28;20055;-78
2023/09/01 01:38:52;;;;;;;9.10;3.83;;;11.60;99.90;;;;;;5075711;28;20530;-78
2023/09/01 01:41:25;;;;;;;8.60;4.53;;;11.50;99.90;;;;;;5075450;28;20048;-78
2023/09/01 01:43:51;;;;;;;8.68;4.13;;;11.40;99.90;;;;;;5078187;28;20047;-78
2023/09/01 01:46:17;;;;;;;6.70;3.88;;;11.40;99.90;;;;;;5097812;28;20075;-78
2023/09/01 01:48:43;;;;;;;7.15;4.22;;;11.40;99.90;;;;;;5079824;28;20444;-78
2023/09/01 01:51:08;;;;;;;7.63;4.18;;;11.40;99.90;;;;;;5097764;28;20126;-78
2023/09/01 01:53:37;;;;;;;9.65;3.88;;;11.30;99.90;;;;;;5097742;28;20110;-78
2023/09/01 01:56:06;;;;;;;7.03;3.53;;;11.30;99.90;;;;;;5097508;28;20036;-78
2023/09/01 01:58:33;;;;;;;7.55;3.45;;;11.40;99.90;;;;;;5097075;28;20487;-78
2023/09/01 02:01:06;;;;;;;8.18;4.38;;;11.30;99.90;;;;;;5079554;28;20471;-78
2023/09/01 02:03:31;;;;;;;;;;;11.30;99.90;;;;;;5079629;28;20048;-78
2023/09/01 02:05:57;;;;;;;8.23;4.25;;;11.40;99.90;;;;;;5079036;28;19920;-78
2023/09/01 02:08:23;;;;;;;9.90;4.53;;;11.40;99.90;;;;;;5079281;28;20044;-78
2023/09/01 02:10:48;;;;;;;10.68;4.40;;;11.40;99.90;;;;;;5079378;28;20483;-78
2023/09/01 02:13:14;;;;;;;9.63;4.95;;;11.40;99.90;;;;;;5079114;28;20136;-78
2023/09/01 02:15:40;;;;;;;9.93;4.47;;;11.40;99.90;;;;;;5079104;28;20059;-78
2023/09/01 02:18:08;;;;;;;9.45;3.90;;;11.40;99.90;;;;;;5097153;28;20051;-78
2023/09/01 02:20:37;;;;;;;10.48;4.03;;;11.40;99.90;;;;;;5079012;28;20123;-78
2023/09/01 02:23:04;;;;;;;10.90;5.00;;;11.30;99.90;;;;;;5079043;28;20044;-78
2023/09/01 02:25:36;;;;;;;8.70;4.50;;;11.40;99.90;;;;;;5096915;28;20115;-78
2023/09/01 02:28:04;;;;;;;7.88;4.40;;;11.30;99.90;;;;;;5078843;28;20423;-78
2023/09/01 02:30:30;;;;;;;7.90;3.75;;;11.30;99.90;;;;;;5078738;28;20551;-78
2023/09/01 02:32:56;;;;;;;7.55;4.43;;;11.30;99.90;;;;;;5096983;28;20062;-78
2023/09/01 02:35:22;;;;;;;12.68;4.40;;;11.30;99.90;;;;;;5096854;28;20487;-78
2023/09/01 02:37:49;;;;;;;6.93;3.65;;;11.30;99.90;;;;;;5078494;28;20078;-78
2023/09/01 02:40:15;;;;;;;7.45;4.00;;;11.20;99.90;;;;;;5078569;28;20052;-78
2023/09/01 02:42:42;;;;;;;8.02;3.90;;;11.20;99.90;;;;;;5096761;28;20055;-78
2023/09/01 02:45:11;;;;;;;8.70;3.85;;;11.20;99.90;;;;;;5078522;28;20058;-78
2023/09/01 02:47:40;;;;;;;9.63;3.85;;;11.20;99.90;;;;;;5096671;28;20075;-78
2023/09/01 02:50:07;;;;;;;6.65;3.80;;;11.10;99.90;;;;;;5096767;28;20089;-78
2023/09/01 02:52:33;;;;;;;8.80;4.10;;;11.10;99.90;;;;;;5078514;28;20089;-78
2023/09/01 02:54:59;;;;;;;7.03;3.85;;;11.10;99.90;;;;;;5065278;28;20112;-78
2023/09/01 02:57:25;;;;;;;10.65;3.97;;;11.10;99.90;;;;;;5075791;28;20047;-78
2023/09/01 02:59:53;;;;;;;7.88;3.88;;;11.10;99.90;;;;;;5058209;28;20048;-78
2023/09/01 03:02:19;;;;;;;7.55;4.25;;;11.10;99.90;;;;;;5057945;28;20522;-78
2023/09/01 03:04:47;;;;;;;11.40;4.10;;;11.10;99.90;;;;;;5058084;28;20052;-78
2023/09/01 03:07:12;;;;;;;8.13;3.97;;;11.00;99.90;;;;;;5058140;28;20384;-78
2023/09/01 03:09:38;;;;;;;9.57;4.28;;;11.00;99.90;;;;;;5076100;28;20047;-78
2023/09/01 03:12:04;;;;;;;9.35;4.55;;;11.00;99.90;;;;;;5058181;28;20047;-78
2023/09/01 03:14:30;;;;;;;7.30;3.85;;;11.00;99.90;;;;;;5057918;28;20050;-78
2023/09/01 03:16:56;;;;;;;8.75;3.88;;;11.00;99.90;;;;;;5075722;28;20047;-78
2023/09/01 03:19:22;;;;;;;6.60;4.15;;;10.90;99.90;;;;;;5075647;28;20384;-78
2023/09/01 03:21:47;;;;;;;7.65;4.30;;;10.90;99.90;;;;;;5057744;28;20557;-78
2023/09/01 03:24:13;;;;;;;10.85;3.85;;;10.90;99.90;;;;;;5057914;28;20083;-78
2023/09/01 03:26:38;;;;;;;6.50;3.90;;;10.90;99.90;;;;;;5057974;28;20479;-78
2023/09/01 03:29:07;;;;;;;8.20;3.83;;;10.90;99.90;;;;;;5075405;28;20440;-78
2023/09/01 03:31:33;;;;;;;8.13;3.42;;;10.80;99.90;;;;;;5075591;28;20037;-78
2023/09/01 03:33:59;;;;;;;5.88;3.58;;;10.80;99.90;;;;;;5075381;28;20051;-78
2023/09/01 03:36:28;;;;;;;11.98;3.92;;;10.80;99.90;;;;;;5057446;28;20083;-78
2023/09/01 03:38:54;;;;;;;8.85;4.30;;;10.90;99.90;;;;;;5075441;28;20067;-78
2023/09/01 03:41:20;;;;;;;7.72;4.20;;;10.90;99.90;;;;;;5057329;28;20044;-78
2023/09/01 03:43:49;;;;;;;6.82;4.65;;;10.90;99.90;;;;;;5075047;28;20097;-78
2023/09/01 03:46:14;;;;;;;9.40;4.00;;;10.90;99.90;;;;;;5057257;28;20484;-78
2023/09/01 03:48:40;;;;;;;8.93;4.78;;;10.90;99.90;;;;;;5057211;28;20048;-78
2023/09/01 03:51:18;;;;;;;9.85;4.40;;;10.90;99.90;;;;;;5075045;28;20126;-78
2023/09/01 03:53:44;;;;;;;8.68;4.25;;;10.90;99.90;;;;;;5057483;28;20044;-78
2023/09/01 03:56:19;;;;;;;12.77;4.05;;;10.90;99.90;;;;;;5075052;28;20400;-78
2023/09/01 03:58:45;;;;;;;9.75;4.50;;;10.90;99.90;;;;;;5074772;28;20067;-78
2023/09/01 04:01:11;;;;;;;7.68;4.38;;;10.90;99.90;;;;;;5056913;28;20131;-78
2023/09/01 04:03:38;;;;;;;8.93;3.97;;;10.90;99.90;;;;;;5057122;28;20036;-78
2023/09/01 04:06:05;;;;;;;9.05;4.03;;;10.80;99.90;;;;;;5074305;28;20139;-78
2023/09/01 04:08:31;;;;;;;6.88;3.70;;;10.80;99.90;;;;;;5074478;28;20037;-78
2023/09/01 04:10:57;;;;;;;11.18;4.57;;;10.80;99.90;;;;;;5074561;28;20044;-78
2023/09/01 04:13:23;;;;;;;9.25;4.22;;;10.80;99.90;;;;;;5056620;28;20472;-78
2023/09/01 04:15:50;;;;;;;7.78;4.13;;;10.80;99.90;;;;;;5074644;28;20044;-78
2023/09/01 04:18:16;;;;;;;6.03;3.88;;;10.70;99.90;;;;;;5074260;28;20056;-78
2023/09/01 04:20:47;;;;;;;9.40;3.50;;;10.70;99.90;;;;;;5056539;28;20581;-78
2023/09/01 04:23:14;;;;;;;7.80;4.38;;;10.70;99.90;;;;;;5074964;28;20094;-78
2023/09/01 04:25:39;;;;;;;6.70;4.53;;;10.70;99.90;;;;;;5056305;28;20113;-78
2023/09/01 04:28:05;;;;;;;7.22;3.60;;;10.70;99.90;;;;;;5056671;28;20044;-78
2023/09/01 04:30:31;;;;;;;6.88;3.65;;;10.60;99.90;;;;;;5074292;28;20393;-78
2023/09/01 04:32:56;;;;;;;10.38;4.40;;;10.60;99.90;;;;;;5074271;28;20036;-78
2023/09/01 04:35:22;;;;;;;8.77;3.90;;;10.50;99.90;;;;;;5074235;28;20384;-78
2023/09/01 04:38:06;;;;;;;7.13;4.07;;;10.60;99.90;;;;;;5074589;28;20430;-78
2023/09/01 04:40:34;;;;;;;7.10;3.88;;;10.60;99.90;;;;;;5056113;28;20120;-78
2023/09/01 04:43:00;;;;;;;7.80;3.92;;;10.60;99.90;;;;;;5055643;28;20056;-78
2023/09/01 04:45:28;;;;;;;8.32;4.10;;;10.60;99.90;;;;;;5074017;28;20446;-78
2023/09/01 04:47:54;;;;;;;7.13;4.25;;;10.60;99.90;;;;;;5073860;28;20377;-78
2023/09/01 04:50:19;;;;;;;8.23;3.70;;;10.60;99.90;;;;;;5056092;28;20055;-78
2023/09/01 04:52:45;;;;;;;8.80;4.25;;;10.60;99.90;;;;;;5073957;28;20494;-78
2023/09/01 04:55:13;;;;;;;6.65;3.72;;;10.60;99.90;;;;;;5073964;28;20438;-79
2023/09/01 04:57:39;;;;;;;7.35;3.58;;;10.50;99.90;;;;;;5073557;28;20175;-79
2023/09/01 05:00:15;;;;;;;9.05;3.45;;;10.50;99.90;;;;;;5055946;28;20123;-78
2023/09/01 05:02:42;;;;;;;8.80;3.50;;;10.50;99.90;;;;;;5073847;28;20049;-78
2023/09/01 05:05:08;;;;;;;7.47;4.15;;;10.50;99.90;;;;;;5055643;28;20056;-78
2023/09/01 05:07:34;;;;;;;7.20;3.65;;;10.40;99.90;;;;;;5055861;28;20048;-79
2023/09/01 05:10:00;;;;;;;8.40;4.07;;;10.50;99.90;;;;;;5055532;28;20040;-78
2023/09/01 05:12:25;;;;;;;7.93;4.18;;;10.50;99.90;;;;;;5073641;28;20046;-79
2023/09/01 05:14:51;;;;;;;7.78;4.00;;;10.50;99.90;;;;;;5073528;28;20037;-78
2023/09/01 05:17:16;;;;;;;9.70;4.28;;;10.60;99.90;;;;;;5055324;28;20049;-79
2023/09/01 05:19:42;;;;;;;7.15;3.85;;;10.70;99.90;;;;;;5055625;28;20044;-78
2023/09/01 05:22:08;;;;;;;7.72;3.72;;;10.70;99.90;;;;;;5055461;28;20052;-78
2023/09/01 05:24:33;;;;;;;7.82;3.67;;;10.70;99.90;;;;;;5055610;28;20127;-78
2023/09/01 05:26:59;;;;;;;7.43;3.85;;;10.70;99.90;;;;;;5055639;28;20048;-78
2023/09/01 05:29:25;;;;;;;7.70;3.67;;;10.70;99.90;;;;;;5073478;28;20049;-78
2023/09/01 05:31:50;;;;;;;8.27;3.30;;;10.60;99.90;;;;;;5073270;28;20044;-78
2023/09/01 05:34:16;;;;;;;6.38;3.97;;;10.70;99.90;;;;;;5055131;28;20044;-78
2023/09/01 05:36:41;;;;;;;7.53;3.70;;;10.60;99.90;;;;;;5055333;28;20041;-78
2023/09/01 05:39:07;;;;;;;7.38;3.25;;;10.70;99.90;;;;;;5073110;28;20045;-78
2023/09/01 05:41:33;;;;;;;8.07;3.72;;;10.70;99.90;;;;;;5055270;28;20043;-78
2023/09/01 05:43:58;;;;;;;7.90;3.92;;;10.80;99.90;;;;;;5055126;28;20171;-78
2023/09/01 05:46:24;;;;;;;6.30;3.80;;;10.80;99.90;;;;;;5073220;28;20097;-78
2023/09/01 05:48:49;;;;;;;6.85;4.75;;;10.90;99.90;;;;;;5055509;28;20500;-79
2023/09/01 05:51:15;;;;;;;7.22;3.90;;;11.00;99.90;;;;;;5055435;28;20048;-78
2023/09/01 05:53:41;;;;;;;8.82;3.97;;;11.10;99.90;;;;;;5055159;28;20047;-78
2023/09/01 05:56:06;;;;;;;9.75;4.05;;;11.20;99.90;;;;;;5055761;28;20044;-78
2023/09/01 05:58:35;;;;;;;7.35;3.65;;;11.30;99.90;;;;;;5072910;28;20048;-78
2023/09/01 06:01:01;;;;;;;7.07;3.92;;;11.40;99.90;;;;;;5055519;28;20114;-78
2023/09/01 06:03:27;;;;;;;9.38;4.40;;;11.60;99.90;;;;;;5055114;28;20427;-78
2023/09/01 06:06:02;;;;;;;9.18;4.72;;;11.70;99.90;;;;;;5070446;23;20087;-78
2023/09/01 06:08:28;;;;;;;8.35;3.85;;;11.70;99.90;;;;;;5054924;28;20056;-78
2023/09/01 06:11:08;;;;;;;9.45;4.70;;;11.80;99.90;;;;;;5055333;28;20052;-78
2023/09/01 06:13:36;;;;;;;8.48;4.35;;;11.90;99.90;;;;;;5054944;28;20049;-78
2023/09/01 06:16:05;;;;;;;7.78;4.20;;;12.10;99.90;;;;;;5072964;28;20047;-78
2023/09/01 06:18:31;;;;;;;8.15;4.18;;;12.20;99.90;;;;;;5054888;28;20048;-78
2023/09/01 06:20:57;;;;;;;7.70;4.10;;;12.20;99.90;;;;;;5072957;28;20094;-78
2023/09/01 06:23:23;;;;;;;9.93;4.43;;;12.30;99.90;;;;;;5072932;28;20045;-78
2023/09/01 06:25:48;;;;;;;10.35;4.90;;;12.30;99.90;;;;;;5072825;28;20045;-78
2023/09/01 06:28:14;;;;;;;7.95;3.95;;;12.40;99.90;;;;;;5054861;28;20045;-78
2023/09/01 06:30:42;;;;;;;9.93;4.10;;;12.50;99.90;;;;;;5074947;28;20044;-76
2023/09/01 06:33:09;;;;;;;8.40;4.35;;;12.60;99.90;;;;;;5076462;28;20082;-76
2023/09/01 06:35:37;;;;;;;11.10;4.38;;;12.80;99.90;;;;;;5076237;28;20391;-76
2023/09/01 06:38:05;;;;;;;7.78;4.07;;;12.90;99.90;;;;;;5076335;28;20053;-76
2023/09/01 06:40:32;;;;;;;7.93;3.92;;;13.00;99.90;;;;;;5075192;28;20044;-77
2023/09/01 06:42:57;;;;;;;6.40;3.97;;;13.10;99.90;;;;;;5058312;28;20101;-78
2023/09/01 06:45:23;;;;;;;6.60;3.95;;;13.20;99.90;;;;;;5076345;28;20127;-79
2023/09/01 06:47:55;;;;;;;10.63;4.07;;;13.30;99.90;;;;;;5076368;28;20040;-76
2023/09/01 06:50:21;;;;;;;6.82;3.67;;;13.50;99.90;;;;;;5076267;28;20040;-77
2023/09/01 06:52:47;;;;;;;10.38;4.22;;;13.60;99.90;;;;;;5075613;28;20044;-76
2023/09/01 06:55:13;;;;;;;8.75;3.70;;;13.70;99.90;;;;;;5058034;28;20175;-76
2023/09/01 06:57:39;;;;;;;8.48;3.63;;;13.70;99.90;;;;;;5058362;28;20048;-75
2023/09/01 07:00:06;;;;;;;6.22;3.47;;;13.70;99.90;;;;;;5058398;28;20044;-76
2023/09/01 07:02:35;;;;;;;7.50;3.72;;;13.80;99.90;;;;;;5057974;28;20119;-75
2023/09/01 07:05:02;;;;;;;6.70;3.50;;;13.90;99.90;;;;;;5057807;28;20080;-76
2023/09/01 07:07:28;;;;;;;7.88;3.47;;;13.90;99.90;;;;;;5057801;28;20133;-76
2023/09/01 07:09:56;;;;;;;7.50;3.30;;;14.00;99.90;;;;;;5058015;28;20088;-75
2023/09/01 07:12:22;;;;;;;9.10;3.70;;;14.20;99.90;;;;;;5075992;28;20051;-76
2023/09/01 07:14:47;;;;;;;6.20;3.05;;;14.20;99.90;;;;;;5057726;28;20131;-75
2023/09/01 07:17:13;;;;;;;7.28;2.97;;;14.30;99.90;;;;;;5057587;28;20048;-75
2023/09/01 07:19:41;;;;;;;9.07;3.10;;;14.40;99.90;;;;;;5075749;28;20072;-76
2023/09/01 07:22:06;;;;;;;7.00;3.10;;;14.50;99.90;;;;;;5075557;28;20541;-75
2023/09/01 07:24:32;;;;;;;5.40;2.80;;;14.70;99.90;;;;;;5075308;28;20049;-75
2023/09/01 07:26:58;;;;;;;5.18;2.75;;;14.80;99.90;;;;;;5057818;28;20094;-75
2023/09/01 07:29:24;;;;;;;5.97;2.60;;;15.00;99.90;;;;;;5057416;28;20044;-75
2023/09/01 07:31:49;;;;;;;6.47;2.70;;;15.10;99.90;;;;;;5049342;28;20102;-75
2023/09/01 07:34:15;;;;;;;8.57;2.45;;;15.20;99.90;;;;;;5057611;28;20384;-75
2023/09/01 07:36:40;;;;;;;4.05;2.33;;;15.40;99.90;;;;;;5057593;28;20052;-75
2023/09/01 07:39:06;;;;;;;5.18;2.25;;;15.50;99.90;;;;;;5057557;28;20104;-75
2023/09/01 07:41:34;;;;;;;7.80;2.08;;;15.60;99.90;;;;;;5075194;28;20044;-75
2023/09/01 07:44:00;;;;;;;7.10;2.72;;;15.70;99.90;;;;;;5056983;28;20060;-75
2023/09/01 07:46:27;;;;;;;4.88;2.08;;;15.80;99.90;;;;;;5075217;28;20044;-75
2023/09/01 07:48:55;;;;;;;4.63;2.00;;;15.90;99.90;;;;;;5057516;28;20052;-76
2023/09/01 07:51:21;;;;;;;6.07;2.33;;;16.00;99.90;;;;;;5056929;28;20131;-76
2023/09/01 07:53:46;;;;;;;7.93;2.50;;;16.10;99.90;;;;;;5075019;28;20178;-75
2023/09/01 07:56:12;;;;;;;6.40;2.03;;;16.20;99.90;;;;;;5057144;28;20110;-75
2023/09/01 07:58:38;;;;;;;4.60;2.10;;;16.40;99.90;;;;;;5074996;28;20044;-75
2023/09/01 08:01:03;;;;;;;5.80;2.08;;;16.40;99.90;;;;;;5074965;28;20033;-77
2023/09/01 08:03:29;;;;;;;5.85;2.25;;;16.50;99.90;;;;;;5057023;28;20055;-76
2023/09/01 08:05:54;;;;;;;5.13;1.88;;;16.60;99.90;;;;;;5074285;28;20458;-76
2023/09/01 08:08:21;;;;;;;5.18;2.00;;;16.60;99.90;;;;;;5056578;28;20052;-76
2023/09/01 08:10:47;;;;;;;7.22;1.88;;;16.70;99.90;;;;;;5056635;28;20056;-76
2023/09/01 08:13:12;;;;;;;4.88;1.88;;;16.70;99.90;;;;;;5056866;28;20083;-76
2023/09/01 08:15:38;;;;;;;5.03;2.10;;;16.70;99.90;;;;;;5056566;28;20055;-77
2023/09/01 08:18:05;;;;;;;4.40;2.10;;;16.70;99.90;;;;;;5056746;28;20045;-78
2023/09/01 08:20:31;;;;;;;5.72;1.98;;;16.70;99.90;;;;;;5056701;28;20048;-77
2023/09/01 08:22:56;;;;;;;7.90;2.10;;;16.60;99.90;;;;;;5056361;28;20507;-78
2023/09/01 08:25:22;;;;;;;5.68;1.85;;;16.70;99.90;;;;;;5056183;28;20195;-76
2023/09/01 08:27:47;;;;;;;3.83;1.60;;;16.70;99.90;;;;;;5074264;28;20131;-78
2023/09/01 08:30:13;;;;;;;6.88;2.10;;;16.70;99.90;;;;;;5056336;28;20051;-79
2023/09/01 08:32:41;;;;;;;3.97;1.50;;;16.60;99.90;;;;;;5056515;28;20052;-78
2023/09/01 08:35:07;;;;;;;5.30;1.70;;;16.60;99.90;;;;;;5056298;28;20063;-76
2023/09/01 08:37:35;;;;;;;4.38;2.30;;;16.60;99.90;;;;;;5074073;28;20197;-80
2023/09/01 08:40:00;;;;;;;6.50;2.00;;;16.70;99.90;;;;;;5056189;28;20137;-79
2023/09/01 08:42:29;;;;;;;4.68;1.88;;;16.70;99.90;;;;;;5073902;28;20044;-79
2023/09/01 08:44:58;;;;;;;5.78;1.98;;;16.80;99.90;;;;;;5055895;28;20403;-78
2023/09/01 08:47:25;;;;;;;6.15;1.85;;;16.70;99.90;;;;;;5055999;28;20483;-78
2023/09/01 08:49:52;;;;;;;6.03;2.00;;;16.80;99.90;;;;;;5073658;28;20131;-79
2023/09/01 08:52:19;;;;;;;5.22;1.88;;;16.90;99.90;;;;;;5073618;28;20048;-78
2023/09/01 08:54:48;;;;;;;5.63;1.70;;;16.90;99.90;;;;;;5055669;28;20479;-78
2023/09/01 08:57:13;;;;;;;4.28;2.30;;;16.90;99.90;;;;;;5056032;28;20140;-78
2023/09/01 08:59:39;;;;;;;4.95;1.83;;;16.90;99.90;;;;;;5055750;28;20131;-79
2023/09/01 09:02:05;;;;;;;4.75;1.50;;;16.90;99.90;;;;;;5055938;28;20048;-79
2023/09/01 09:04:31;;;;;;;4.03;1.85;;;16.90;99.90;;;;;;5055730;28;20109;-78
2023/09/01 09:07:15;;;;;;;4.30;1.55;;;16.80;99.90;;;;;;5055499;28;20053;-78
2023/09/01 09:09:50;;;;;;;5.20;2.05;;;16.90;99.90;;;;;;5055907;28;20045;-78
2023/09/01 09:12:16;;;;;;;6.40;2.80;;;16.80;99.90;;;;;;5073639;28;20048;-77
2023/09/01 09:14:52;;;;;;;6.15;2.70;;;16.90;99.90;;;;;;5055489;28;20372;-77
2023/09/01 09:17:22;;;;;;;5.60;2.60;;;16.90;99.90;;;;;;5055519;28;20040;-78
2023/09/01 09:19:59;;;;;;;7.13;3.05;;;16.90;99.90;;;;;;5073755;28;20514;-77
2023/09/01 09:22:25;;;;;;;8.00;3.70;;;17.00;99.90;;;;;;5073381;28;20045;-78
2023/09/01 09:24:51;;;;;;;8.88;3.83;;;17.00;99.90;;;;;;5055554;28;20101;-77
2023/09/01 09:27:17;;;;;;;6.15;4.10;;;17.10;99.90;;;;;;5055634;28;20049;-78
2023/09/01 09:29:45;;;;;;;8.60;4.38;;;17.10;99.90;;;;;;5073568;28;20036;-77
2023/09/01 09:32:19;;;;;;;9.00;4.63;;;17.10;99.90;;;;;;5055611;28;20567;-78
2023/09/01 09:35:09;;;;;;;10.02;4.68;;;17.10;99.90;;;;;;5055261;28;20407;-78
2023/09/01 09:37:36;;;;;;;9.13;4.75;;;17.20;99.90;;;;;;5055494;28;20486;-78
2023/09/01 09:40:15;;;;;;;8.25;4.75;;;17.30;99.90;;;;;;5055231;28;20058;-78
2023/09/01 09:42:43;;;;;;;7.82;3.88;;;17.40;99.90;;;;;;5055492;28;20492;-78
2023/09/01 09:45:24;;;;;;;6.70;3.80;;;17.50;99.90;;;;;;5073157;28;20044;-78
2023/09/01 09:47:49;;;;;;;8.23;4.00;;;17.60;99.90;;;;;;5073336;28;20091;-78
2023/09/01 09:50:19;;;;;;;7.93;4.20;;;17.70;99.90;;;;;;5055132;28;20076;-78
2023/09/01 09:52:56;;;;;;;9.63;4.40;;;17.70;99.90;;;;;;5072982;28;20091;-78
2023/09/01 09:55:28;;;;;;;7.88;4.20;;;17.60;99.90;;;;;;5073141;28;20051;-79
2023/09/01 09:58:07;;;;;;;7.15;4.18;;;17.60;99.90;;;;;;5073316;28;20044;-79
2023/09/01 10:00:50;;;;;;;8.70;4.05;;;17.80;99.90;;;;;;5055335;28;20052;-79
2023/09/01 10:03:17;;;;;;;8.77;4.30;;;17.90;99.90;;;;;;5054976;28;20124;-78
2023/09/01 10:05:44;;;;;;;6.80;4.00;;;18.00;99.90;;;;;;5052027;28;20085;-78
2023/09/01 10:08:11;;;;;;;6.82;3.78;;;18.20;99.90;;;;;;5057194;28;20052;-78
2023/09/01 10:10:37;;;;;;;8.60;3.60;;;18.10;99.90;;;;;;5038953;28;20048;-78
2023/09/01 10:13:07;;;;;;;6.07;3.60;;;18.20;99.90;;;;;;5038907;28;20048;-79
2023/09/01 10:15:35;;;;;;;6.63;3.85;;;18.20;99.90;;;;;;5039159;28;20049;-79
2023/09/01 10:18:03;;;;;;;6.72;3.63;;;18.40;99.90;;;;;;5039030;28;20396;-79
2023/09/01 10:20:33;;;;;;;6.10;3.58;;;18.40;99.90;;;;;;5056593;28;20562;-79
2023/09/01 10:23:04;;;;;;;10.57;3.95;;;18.40;99.90;;;;;;5039017;28;20123;-78
2023/09/01 10:25:31;;;;;;;5.10;3.47;;;18.60;99.90;;;;;;5056384;28;20504;-79
2023/09/01 10:28:18;;;;;;;9.02;4.05;;;18.60;99.90;;;;;;5038953;28;20045;-78
2023/09/01 10:30:45;;;;;;;6.25;3.17;;;18.60;99.90;;;;;;5056553;28;20068;-77
2023/09/01 10:33:11;;;;;;;4.95;2.70;;;18.70;99.90;;;;;;5038637;28;20396;-78
2023/09/01 10:35:45;;;;;;;5.22;2.70;;;18.70;99.90;;;;;;5038856;28;20496;-77
2023/09/01 10:38:32;;;;;;;6.22;2.95;;;18.80;99.90;;;;;;5045502;23;20459;-77
2023/09/01 10:40:58;;;;;;;6.68;3.63;;;18.70;99.90;;;;;;5038492;28;20136;-77
2023/09/01 10:43:41;;;;;;;6.97;3.83;;;18.80;99.90;;;;;;5038451;28;20081;-78
2023/09/01 10:46:33;;;;;;;5.90;3.83;;;19.10;99.90;;;;;;5056240;28;20057;-78
2023/09/01 10:49:04;;;;;;;7.78;3.80;;;19.20;99.90;;;;;;5038647;28;20070;-77
2023/09/01 10:51:33;;;;;;;8.23;3.80;;;19.40;99.90;;;;;;5037173;28;20506;-77
2023/09/01 10:54:03;;;;;;;6.28;4.05;;;19.60;99.90;;;;;;5038350;28;20048;-77
2023/09/01 10:56:33;;;;;;;9.32;4.80;;;19.60;99.90;;;;;;5038428;28;20118;-77
2023/09/01 10:58:59;;;;;;;8.00;4.05;;;19.60;99.90;;;;;;5038248;28;20051;-77
2023/09/01 11:01:34;;;;;;;7.97;4.20;;;19.80;99.90;;;;;;5038065;28;20049;-77
2023/09/01 11:04:22;;;;;;;4.05;2.10;;;19.50;99.90;;;;;;5037876;28;20045;-77
2023/09/01 11:06:56;;;;;;;4.00;1.80;;;19.30;99.90;;;;;;5038154;28;20049;-77
2023/09/01 11:09:34;;;;;;;4.00;1.58;;;19.20;99.90;;;;;;5037935;28;20094;-76
2023/09/01 11:12:04;;;;;;;5.80;2.85;;;19.10;99.90;;;;;;5038137;28;20127;-77
2023/09/01 11:14:50;;;;;;;4.22;1.50;;;19.20;99.90;;;;;;5037885;28;20091;-77
2023/09/01 11:17:16;;;;;;;3.78;1.33;;;19.20;99.90;;;;;;5036525;28;20080;-77
2023/09/01 11:19:48;;;;;;;7.00;2.22;;;19.20;99.90;;;;;;5037970;28;20083;-77
2023/09/01 11:22:14;;;;;;;7.63;3.80;;;19.30;99.90;;;;;;5037992;28;20071;-77
2023/09/01 11:24:44;;;;;;;7.70;3.35;;;19.40;99.90;;;;;;5037728;28;20155;-77
2023/09/01 11:27:10;;;;;;;4.13;1.98;;;19.40;99.90;;;;;;5037832;28;20048;-77
2023/09/01 11:29:40;;;;;;;5.28;2.35;;;19.70;99.90;;;;;;5037530;28;20111;-77
2023/09/01 11:32:06;;;;;;;8.88;2.80;;;19.80;99.90;;;;;;5037399;28;20502;-76
2023/09/01 11:34:38;;;;;;;5.53;2.20;;;20.00;99.90;;;;;;5055168;28;20136;-77
2023/09/01 11:37:06;;;;;;;5.32;2.92;;;20.00;99.90;;;;;;5039851;28;20045;-77
2023/09/01 11:39:31;;;;;;;6.68;4.05;;;19.80;99.90;;;;;;5057322;28;20052;-77
2023/09/01 11:41:59;;;;;;;3.92;1.80;;;19.90;99.90;;;;;;5057455;28;20054;-77
2023/09/01 11:44:28;;;;;;;3.28;1.77;;;20.00;99.90;;;;;;5057232;28;20037;-77
2023/09/01 11:46:53;;;;;;;3.45;1.80;;;19.80;99.90;;;;;;5057343;28;20139;-76
2023/09/01 11:49:19;;;;;;;5.60;1.70;;;19.70;99.90;;;;;;5075248;28;20140;-77
2023/09/01 11:51:45;;;;;;;6.28;2.03;;;19.80;99.90;;;;;;5057200;28;20048;-77
2023/09/01 11:54:10;;;;;;;6.25;2.75;;;19.80;99.90;;;;;;5057432;28;20055;-77
2023/09/01 11:56:36;;;;;;;5.93;2.22;;;19.70;99.90;;;;;;5056898;28;20048;-77
2023/09/01 11:59:02;;;;;;;4.97;2.47;;;20.00;99.90;;;;;;5056918;28;20098;-77
2023/09/01 12:01:32;;;;;;;7.78;2.58;;;19.80;99.90;;;;;;5074873;28;20047;-77
2023/09/01 12:04:09;;;;;;;5.85;2.90;;;19.90;99.90;;;;;;5056744;28;20135;-77
2023/09/01 12:06:46;;;;;;;8.57;3.03;;;20.10;99.90;;;;;;5056895;28;20048;-77
2023/09/01 12:09:18;;;;;;;6.13;2.65;;;19.90;99.90;;;;;;5057113;28;20049;-77
2023/09/01 12:11:54;;;;;;;5.50;2.17;;;20.20;99.90;;;;;;5056815;28;20113;-77
2023/09/01 12:14:25;;;;;;;5.35;2.30;;;20.00;99.90;;;;;;5056811;28;20067;-77
2023/09/01 12:16:53;;;;;;;4.35;2.10;;;20.20;99.90;;;;;;5056863;28;20097;-77
2023/09/01 12:19:23;;;;;;;3.90;1.90;;;20.40;99.90;;;;;;5074657;28;20053;-77
2023/09/01 12:21:49;;;;;;;3.78;1.90;;;20.30;99.90;;;;;;5056604;28;20044;-77
2023/09/01 12:24:21;;;;;;;5.18;2.00;;;20.50;99.90;;;;;;5074242;28;20036;-77
2023/09/01 12:26:47;;;;;;;4.72;1.42;;;20.70;99.90;;;;;;5056474;28;20075;-77
2023/09/01 12:29:13;;;;;;;5.75;2.20;;;20.80;99.90;;;;;;5055624;28;20499;-77
2023/09/01 12:31:38;;;;;;;5.70;1.80;;;20.60;99.90;;;;;;5056502;28;20045;-77
2023/09/01 12:34:04;;;;;;;5.32;2.30;;;20.50;99.90;;;;;;5056549;28;20368;-78
2023/09/01 12:36:30;;;;;;;5.70;2.35;;;20.20;99.90;;;;;;5056235;28;20494;-77
2023/09/01 12:38:57;;;;;;;4.93;2.35;;;20.20;99.90;;;;;;5073887;28;20044;-77
2023/09/01 12:41:23;;;;;;;5.20;2.10;;;20.40;99.90;;;;;;5074197;28;20041;-78
2023/09/01 12:43:49;;;;;;;6.97;2.80;;;20.50;99.90;;;;;;5056652;28;20046;-77
2023/09/01 12:46:14;;;;;;;9.38;2.92;;;20.50;99.90;;;;;;5074082;28;20048;-78
2023/09/01 12:48:43;;;;;;;8.13;2.60;;;20.50;99.90;;;;;;5074118;28;20059;-79
2023/09/01 12:51:09;;;;;;;5.22;2.20;;;20.50;99.90;;;;;;5056137;28;20044;-77